sensor_id;sensor_type;location;lat;lon;timestamp;P1;durP1;ratioP1;P2;durP2;ratioP2
54125;SDS011;40360;52.992;6.796;2023-05-10T00:01:43;10.85;;;9.07;;
54125;SDS011;40360;52.992;6.796;2023-05-10T00:04:08;10.45;;;9.45;;
54125;SDS011;40360;52.992;6.796;2023-05-10T00:06:34;11.95;;;10.63;;
54125;SDS011;40360;52.992;6.796;2023-05-10T00:09:00;12.27;;;11.07;;
54125;SDS011;40360;52.992;6.796;2023-05-10T00:11:25;13.32;;;12.02;;
54125;SDS011;40360;52.992;6.796;2023-05-10T00:13:51;15.32;;;11.63;;
54125;SDS011;40360;52.992;6.796;2023-05-10T00:16:17;13.60;;;12.20;;
54125;SDS011;40360;52.992;6.796;2023-05-10T00:18:42;14.68;;;12.73;;
54125;SDS011;40360;52.992;6.796;2023-05-10T00:21:08;16.45;;;12.90;;
54125;SDS011;40360;52.992;6.796;2023-05-10T00:23:34;14.93;;;12.30;;
54125;SDS011;40360;52.992;6.796;2023-05-10T00:25:59;12.52;;;11.23;;
54125;SDS011;40360;52.992;6.796;2023-05-10T00:28:26;13.52;;;12.02;;
54125;SDS011;40360;52.992;6.796;2023-05-10T00:30:53;13.07;;;11.07;;
54125;SDS011;40360;52.992;6.796;2023-05-10T00:33:18;13.32;;;11.55;;
54125;SDS011;40360;52.992;6.796;2023-05-10T00:35:44;12.95;;;11.23;;
54125;SDS011;40360;52.992;6.796;2023-05-10T00:38:10;15.68;;;11.90;;
54125;SDS011;40360;52.992;6.796;2023-05-10T00:40:35;16.30;;;12.45;;
54125;SDS011;40360;52.992;6.796;2023-05-10T00:43:02;16.58;;;12.93;;
54125;SDS011;40360;52.992;6.796;2023-05-10T00:45:28;15.40;;;12.70;;
54125;SDS011;40360;52.992;6.796;2023-05-10T00:47:56;16.23;;;12.60;;
54125;SDS011;40360;52.992;6.796;2023-05-10T00:50:22;14.93;;;11.80;;
54125;SDS011;40360;52.992;6.796;2023-05-10T00:52:48;14.32;;;11.77;;
54125;SDS011;40360;52.992;6.796;2023-05-10T00:55:15;13.93;;;11.68;;
54125;SDS011;40360;52.992;6.796;2023-05-10T00:57:40;13.85;;;12.30;;
54125;SDS011;40360;52.992;6.796;2023-05-10T01:00:07;13.90;;;11.75;;
54125;SDS011;40360;52.992;6.796;2023-05-10T01:02:36;17.42;;;12.95;;
54125;SDS011;40360;52.992;6.796;2023-05-10T01:05:02;13.75;;;12.25;;
54125;SDS011;40360;52.992;6.796;2023-05-10T01:07:31;13.70;;;11.70;;
54125;SDS011;40360;52.992;6.796;2023-05-10T01:09:56;15.35;;;12.68;;
54125;SDS011;40360;52.992;6.796;2023-05-10T01:12:22;12.18;;;10.93;;
54125;SDS011;40360;52.992;6.796;2023-05-10T01:14:48;14.65;;;12.45;;
54125;SDS011;40360;52.992;6.796;2023-05-10T01:17:14;15.55;;;12.32;;
54125;SDS011;40360;52.992;6.796;2023-05-10T01:19:41;12.88;;;11.48;;
54125;SDS011;40360;52.992;6.796;2023-05-10T01:22:19;15.88;;;11.90;;
54125;SDS011;40360;52.992;6.796;2023-05-10T01:30:48;13.30;;;10.77;;
54125;SDS011;40360;52.992;6.796;2023-05-10T01:33:30;12.90;;;10.77;;
54125;SDS011;40360;52.992;6.796;2023-05-10T01:36:23;14.43;;;11.18;;
54125;SDS011;40360;52.992;6.796;2023-05-10T01:38:53;14.45;;;11.95;;
54125;SDS011;40360;52.992;6.796;2023-05-10T01:46:43;15.75;;;12.43;;
54125;SDS011;40360;52.992;6.796;2023-05-10T01:49:13;17.85;;;13.43;;
54125;SDS011;40360;52.992;6.796;2023-05-10T01:51:50;15.18;;;11.85;;
54125;SDS011;40360;52.992;6.796;2023-05-10T01:54:20;15.82;;;12.45;;
54125;SDS011;40360;52.992;6.796;2023-05-10T01:56:47;16.65;;;13.43;;
54125;SDS011;40360;52.992;6.796;2023-05-10T01:59:23;18.05;;;13.05;;
54125;SDS011;40360;52.992;6.796;2023-05-10T02:01:54;17.15;;;13.57;;
54125;SDS011;40360;52.992;6.796;2023-05-10T02:04:23;19.17;;;13.10;;
54125;SDS011;40360;52.992;6.796;2023-05-10T02:06:50;20.40;;;14.60;;
54125;SDS011;40360;52.992;6.796;2023-05-10T02:09:17;21.45;;;13.07;;
54125;SDS011;40360;52.992;6.796;2023-05-10T02:11:45;20.92;;;14.38;;
54125;SDS011;40360;52.992;6.796;2023-05-10T02:14:16;25.27;;;14.73;;
54125;SDS011;40360;52.992;6.796;2023-05-10T02:16:43;19.92;;;13.82;;
54125;SDS011;40360;52.992;6.796;2023-05-10T02:19:11;20.33;;;13.80;;
54125;SDS011;40360;52.992;6.796;2023-05-10T02:21:39;20.85;;;14.63;;
54125;SDS011;40360;52.992;6.796;2023-05-10T02:24:05;19.77;;;13.35;;
54125;SDS011;40360;52.992;6.796;2023-05-10T02:26:32;19.85;;;13.77;;
54125;SDS011;40360;52.992;6.796;2023-05-10T02:29:00;19.85;;;13.45;;
54125;SDS011;40360;52.992;6.796;2023-05-10T02:31:28;17.77;;;12.63;;
54125;SDS011;40360;52.992;6.796;2023-05-10T02:33:55;21.02;;;13.60;;
54125;SDS011;40360;52.992;6.796;2023-05-10T02:36:23;16.27;;;12.68;;
54125;SDS011;40360;52.992;6.796;2023-05-10T02:38:52;20.08;;;14.00;;
54125;SDS011;40360;52.992;6.796;2023-05-10T02:41:19;21.33;;;13.45;;
54125;SDS011;40360;52.992;6.796;2023-05-10T02:43:49;20.35;;;13.43;;
54125;SDS011;40360;52.992;6.796;2023-05-10T02:46:16;19.55;;;14.02;;
54125;SDS011;40360;52.992;6.796;2023-05-10T02:48:42;19.65;;;13.80;;
54125;SDS011;40360;52.992;6.796;2023-05-10T02:51:08;22.25;;;14.55;;
54125;SDS011;40360;52.992;6.796;2023-05-10T02:53:38;21.88;;;14.82;;
54125;SDS011;40360;52.992;6.796;2023-05-10T02:56:08;19.08;;;12.50;;
54125;SDS011;40360;52.992;6.796;2023-05-10T02:58:40;22.13;;;14.68;;
54125;SDS011;40360;52.992;6.796;2023-05-10T03:01:06;22.27;;;14.45;;
54125;SDS011;40360;52.992;6.796;2023-05-10T03:03:32;20.58;;;14.18;;
54125;SDS011;40360;52.992;6.796;2023-05-10T03:05:58;22.38;;;14.77;;
54125;SDS011;40360;52.992;6.796;2023-05-10T03:08:24;19.20;;;13.38;;
54125;SDS011;40360;52.992;6.796;2023-05-10T03:10:54;22.17;;;15.63;;
54125;SDS011;40360;52.992;6.796;2023-05-10T03:13:43;22.00;;;15.07;;
54125;SDS011;40360;52.992;6.796;2023-05-10T03:16:29;20.15;;;15.13;;
54125;SDS011;40360;52.992;6.796;2023-05-10T03:19:15;25.00;;;15.63;;
54125;SDS011;40360;52.992;6.796;2023-05-10T03:21:46;23.88;;;15.50;;
54125;SDS011;40360;52.992;6.796;2023-05-10T03:24:16;24.77;;;15.85;;
54125;SDS011;40360;52.992;6.796;2023-05-10T03:26:43;24.23;;;15.27;;
54125;SDS011;40360;52.992;6.796;2023-05-10T03:29:11;22.55;;;15.60;;
54125;SDS011;40360;52.992;6.796;2023-05-10T03:31:39;22.02;;;14.70;;
54125;SDS011;40360;52.992;6.796;2023-05-10T03:34:06;24.27;;;15.25;;
54125;SDS011;40360;52.992;6.796;2023-05-10T03:36:32;25.63;;;16.70;;
54125;SDS011;40360;52.992;6.796;2023-05-10T03:38:58;22.63;;;16.30;;
54125;SDS011;40360;52.992;6.796;2023-05-10T03:41:23;21.95;;;15.82;;
54125;SDS011;40360;52.992;6.796;2023-05-10T03:43:50;24.88;;;16.70;;
54125;SDS011;40360;52.992;6.796;2023-05-10T03:46:16;20.80;;;16.02;;
54125;SDS011;40360;52.992;6.796;2023-05-10T03:48:41;22.20;;;15.27;;
54125;SDS011;40360;52.992;6.796;2023-05-10T03:51:07;22.95;;;16.55;;
54125;SDS011;40360;52.992;6.796;2023-05-10T03:53:33;24.52;;;15.55;;
54125;SDS011;40360;52.992;6.796;2023-05-10T03:55:58;20.00;;;15.57;;
54125;SDS011;40360;52.992;6.796;2023-05-10T03:58:24;26.48;;;16.52;;
54125;SDS011;40360;52.992;6.796;2023-05-10T04:00:50;21.10;;;14.82;;
54125;SDS011;40360;52.992;6.796;2023-05-10T04:03:17;22.52;;;16.25;;
54125;SDS011;40360;52.992;6.796;2023-05-10T04:05:42;21.42;;;15.82;;
54125;SDS011;40360;52.992;6.796;2023-05-10T04:08:08;23.45;;;17.48;;
54125;SDS011;40360;52.992;6.796;2023-05-10T04:10:34;21.75;;;15.13;;
54125;SDS011;40360;52.992;6.796;2023-05-10T04:13:00;22.35;;;15.75;;
54125;SDS011;40360;52.992;6.796;2023-05-10T04:15:25;20.67;;;14.93;;
54125;SDS011;40360;52.992;6.796;2023-05-10T04:17:51;17.95;;;14.45;;
54125;SDS011;40360;52.992;6.796;2023-05-10T04:20:17;19.60;;;14.80;;
54125;SDS011;40360;52.992;6.796;2023-05-10T04:22:43;18.10;;;13.15;;
54125;SDS011;40360;52.992;6.796;2023-05-10T04:25:08;16.17;;;12.15;;
54125;SDS011;40360;52.992;6.796;2023-05-10T04:27:34;14.27;;;12.23;;
54125;SDS011;40360;52.992;6.796;2023-05-10T04:30:00;17.77;;;13.60;;
54125;SDS011;40360;52.992;6.796;2023-05-10T04:32:25;15.40;;;12.77;;
54125;SDS011;40360;52.992;6.796;2023-05-10T04:34:51;16.23;;;12.05;;
54125;SDS011;40360;52.992;6.796;2023-05-10T04:37:16;15.93;;;11.95;;
54125;SDS011;40360;52.992;6.796;2023-05-10T04:39:43;12.57;;;10.82;;
54125;SDS011;40360;52.992;6.796;2023-05-10T04:42:08;14.07;;;10.63;;
54125;SDS011;40360;52.992;6.796;2023-05-10T04:44:34;16.08;;;10.73;;
54125;SDS011;40360;52.992;6.796;2023-05-10T04:47:00;12.57;;;10.25;;
54125;SDS011;40360;52.992;6.796;2023-05-10T04:49:27;12.10;;;9.80;;
54125;SDS011;40360;52.992;6.796;2023-05-10T04:51:53;10.70;;;9.35;;
54125;SDS011;40360;52.992;6.796;2023-05-10T04:54:18;14.65;;;9.98;;
54125;SDS011;40360;52.992;6.796;2023-05-10T04:56:44;11.38;;;9.27;;
54125;SDS011;40360;52.992;6.796;2023-05-10T04:59:10;11.18;;;9.45;;
54125;SDS011;40360;52.992;6.796;2023-05-10T05:01:35;11.65;;;9.05;;
54125;SDS011;40360;52.992;6.796;2023-05-10T05:04:01;10.90;;;8.80;;
54125;SDS011;40360;52.992;6.796;2023-05-10T05:06:27;11.68;;;8.57;;
54125;SDS011;40360;52.992;6.796;2023-05-10T05:08:52;8.93;;;8.02;;
54125;SDS011;40360;52.992;6.796;2023-05-10T05:11:18;10.50;;;8.52;;
54125;SDS011;40360;52.992;6.796;2023-05-10T05:13:44;9.32;;;8.23;;
54125;SDS011;40360;52.992;6.796;2023-05-10T05:16:10;11.00;;;8.80;;
54125;SDS011;40360;52.992;6.796;2023-05-10T05:18:36;10.73;;;8.77;;
54125;SDS011;40360;52.992;6.796;2023-05-10T05:21:02;9.75;;;8.70;;
54125;SDS011;40360;52.992;6.796;2023-05-10T05:23:27;12.68;;;8.68;;
54125;SDS011;40360;52.992;6.796;2023-05-10T05:25:53;10.77;;;8.10;;
54125;SDS011;40360;52.992;6.796;2023-05-10T05:28:22;9.38;;;8.35;;
54125;SDS011;40360;52.992;6.796;2023-05-10T05:30:47;11.68;;;7.75;;
54125;SDS011;40360;52.992;6.796;2023-05-10T05:33:13;9.90;;;8.13;;
54125;SDS011;40360;52.992;6.796;2023-05-10T05:35:40;9.85;;;7.85;;
54125;SDS011;40360;52.992;6.796;2023-05-10T05:38:07;10.63;;;7.60;;
54125;SDS011;40360;52.992;6.796;2023-05-10T05:40:33;8.45;;;7.25;;
54125;SDS011;40360;52.992;6.796;2023-05-10T05:42:59;9.30;;;7.75;;
54125;SDS011;40360;52.992;6.796;2023-05-10T06:02:04;9.13;;;8.07;;
54125;SDS011;40360;52.992;6.796;2023-05-10T06:04:30;10.40;;;7.72;;
54125;SDS011;40360;52.992;6.796;2023-05-10T06:06:55;8.05;;;6.38;;
54125;SDS011;40360;52.992;6.796;2023-05-10T06:09:21;9.63;;;7.20;;
54125;SDS011;40360;52.992;6.796;2023-05-10T06:11:48;9.07;;;8.05;;
54125;SDS011;40360;52.992;6.796;2023-05-10T06:14:14;17.33;;;8.25;;
54125;SDS011;40360;52.992;6.796;2023-05-10T06:16:39;9.20;;;7.68;;
54125;SDS011;40360;52.992;6.796;2023-05-10T06:19:05;9.38;;;6.75;;
54125;SDS011;40360;52.992;6.796;2023-05-10T06:21:31;8.50;;;7.30;;
54125;SDS011;40360;52.992;6.796;2023-05-10T06:23:56;10.10;;;7.20;;
54125;SDS011;40360;52.992;6.796;2023-05-10T06:26:22;8.20;;;7.28;;
54125;SDS011;40360;52.992;6.796;2023-05-10T06:28:48;6.95;;;6.25;;
54125;SDS011;40360;52.992;6.796;2023-05-10T06:31:13;6.28;;;5.65;;
54125;SDS011;40360;52.992;6.796;2023-05-10T06:33:39;6.25;;;4.70;;
54125;SDS011;40360;52.992;6.796;2023-05-10T06:36:05;6.82;;;5.13;;
54125;SDS011;40360;52.992;6.796;2023-05-10T06:38:31;9.20;;;6.00;;
54125;SDS011;40360;52.992;6.796;2023-05-10T06:40:56;6.18;;;5.25;;
54125;SDS011;40360;52.992;6.796;2023-05-10T06:43:22;5.82;;;5.22;;
54125;SDS011;40360;52.992;6.796;2023-05-10T06:45:48;6.35;;;4.28;;
54125;SDS011;40360;52.992;6.796;2023-05-10T06:48:13;5.15;;;3.97;;
54125;SDS011;40360;52.992;6.796;2023-05-10T06:50:39;5.15;;;4.65;;
54125;SDS011;40360;52.992;6.796;2023-05-10T06:53:04;4.93;;;4.38;;
54125;SDS011;40360;52.992;6.796;2023-05-10T06:55:30;4.68;;;3.75;;
54125;SDS011;40360;52.992;6.796;2023-05-10T06:57:56;4.20;;;3.80;;
54125;SDS011;40360;52.992;6.796;2023-05-10T07:00:21;8.88;;;3.15;;
54125;SDS011;40360;52.992;6.796;2023-05-10T07:02:47;3.15;;;2.85;;
54125;SDS011;40360;52.992;6.796;2023-05-10T07:05:13;2.63;;;2.42;;
54125;SDS011;40360;52.992;6.796;2023-05-10T07:07:40;2.17;;;1.70;;
54125;SDS011;40360;52.992;6.796;2023-05-10T07:10:05;2.03;;;1.40;;
54125;SDS011;40360;52.992;6.796;2023-05-10T07:12:32;1.08;;;0.90;;
54125;SDS011;40360;52.992;6.796;2023-05-10T07:14:58;1.90;;;0.70;;
54125;SDS011;40360;52.992;6.796;2023-05-10T07:17:23;0.75;;;0.50;;
54125;SDS011;40360;52.992;6.796;2023-05-10T07:19:49;2.20;;;0.60;;
54125;SDS011;40360;52.992;6.796;2023-05-10T07:22:15;0.40;;;0.40;;
54125;SDS011;40360;52.992;6.796;2023-05-10T07:24:41;0.40;;;0.40;;
54125;SDS011;40360;52.992;6.796;2023-05-10T07:27:07;0.40;;;0.40;;
54125;SDS011;40360;52.992;6.796;2023-05-10T07:29:33;0.30;;;0.30;;
54125;SDS011;40360;52.992;6.796;2023-05-10T07:31:58;0.55;;;0.40;;
54125;SDS011;40360;52.992;6.796;2023-05-10T07:34:24;0.95;;;0.50;;
54125;SDS011;40360;52.992;6.796;2023-05-10T07:36:50;1.98;;;0.50;;
54125;SDS011;40360;52.992;6.796;2023-05-10T07:39:16;0.40;;;0.28;;
54125;SDS011;40360;52.992;6.796;2023-05-10T07:41:41;0.20;;;0.20;;
54125;SDS011;40360;52.992;6.796;2023-05-10T07:44:07;0.13;;;0.13;;
54125;SDS011;40360;52.992;6.796;2023-05-10T07:46:33;0.47;;;0.30;;
54125;SDS011;40360;52.992;6.796;2023-05-10T07:48:58;0.20;;;0.20;;
54125;SDS011;40360;52.992;6.796;2023-05-10T07:51:24;0.25;;;0.25;;
54125;SDS011;40360;52.992;6.796;2023-05-10T07:53:49;1.48;;;0.47;;
54125;SDS011;40360;52.992;6.796;2023-05-10T07:58:57;0.20;;;0.20;;
54125;SDS011;40360;52.992;6.796;2023-05-10T08:01:23;0.57;;;0.40;;
54125;SDS011;40360;52.992;6.796;2023-05-10T08:03:50;0.30;;;0.30;;
54125;SDS011;40360;52.992;6.796;2023-05-10T08:06:19;0.47;;;0.32;;
54125;SDS011;40360;52.992;6.796;2023-05-10T08:08:48;0.50;;;0.40;;
54125;SDS011;40360;52.992;6.796;2023-05-10T08:11:18;0.60;;;0.60;;
54125;SDS011;40360;52.992;6.796;2023-05-10T08:13:45;0.90;;;0.70;;
54125;SDS011;40360;52.992;6.796;2023-05-10T08:16:12;0.98;;;0.85;;
54125;SDS011;40360;52.992;6.796;2023-05-10T08:18:38;1.40;;;1.20;;
54125;SDS011;40360;52.992;6.796;2023-05-10T08:21:04;2.45;;;1.30;;
54125;SDS011;40360;52.992;6.796;2023-05-10T08:23:30;1.48;;;1.38;;
54125;SDS011;40360;52.992;6.796;2023-05-10T08:25:56;2.78;;;1.52;;
54125;SDS011;40360;52.992;6.796;2023-05-10T08:28:22;1.75;;;1.65;;
54125;SDS011;40360;52.992;6.796;2023-05-10T08:30:49;3.67;;;2.40;;
54125;SDS011;40360;52.992;6.796;2023-05-10T08:33:15;4.70;;;2.55;;
54125;SDS011;40360;52.992;6.796;2023-05-10T08:35:40;7.40;;;3.33;;
54125;SDS011;40360;52.992;6.796;2023-05-10T08:38:06;5.53;;;3.42;;
54125;SDS011;40360;52.992;6.796;2023-05-10T08:40:32;3.63;;;3.17;;
54125;SDS011;40360;52.992;6.796;2023-05-10T08:42:58;5.80;;;3.80;;
54125;SDS011;40360;52.992;6.796;2023-05-10T08:45:32;4.72;;;3.58;;
54125;SDS011;40360;52.992;6.796;2023-05-10T08:48:02;3.83;;;3.40;;
54125;SDS011;40360;52.992;6.796;2023-05-10T08:50:30;3.63;;;3.05;;
54125;SDS011;40360;52.992;6.796;2023-05-10T08:52:57;4.32;;;3.28;;
54125;SDS011;40360;52.992;6.796;2023-05-10T08:55:25;3.70;;;3.30;;
54125;SDS011;40360;52.992;6.796;2023-05-10T08:57:51;4.82;;;3.00;;
54125;SDS011;40360;52.992;6.796;2023-05-10T09:00:17;3.60;;;3.08;;
54125;SDS011;40360;52.992;6.796;2023-05-10T09:02:43;5.15;;;3.80;;
54125;SDS011;40360;52.992;6.796;2023-05-10T09:05:10;4.00;;;3.60;;
54125;SDS011;40360;52.992;6.796;2023-05-10T09:07:36;5.65;;;3.65;;
54125;SDS011;40360;52.992;6.796;2023-05-10T09:10:02;5.38;;;4.13;;
54125;SDS011;40360;52.992;6.796;2023-05-10T09:12:29;5.05;;;3.97;;
54125;SDS011;40360;52.992;6.796;2023-05-10T09:14:55;5.60;;;3.92;;
54125;SDS011;40360;52.992;6.796;2023-05-10T09:17:24;5.65;;;4.38;;
54125;SDS011;40360;52.992;6.796;2023-05-10T09:19:56;5.63;;;4.22;;
54125;SDS011;40360;52.992;6.796;2023-05-10T09:22:23;6.30;;;4.30;;
54125;SDS011;40360;52.992;6.796;2023-05-10T09:25:03;4.82;;;4.28;;
54125;SDS011;40360;52.992;6.796;2023-05-10T09:27:38;4.63;;;4.10;;
54125;SDS011;40360;52.992;6.796;2023-05-10T09:30:05;4.80;;;4.38;;
54125;SDS011;40360;52.992;6.796;2023-05-10T09:32:42;4.22;;;3.83;;
54125;SDS011;40360;52.992;6.796;2023-05-10T09:35:12;4.40;;;4.00;;
54125;SDS011;40360;52.992;6.796;2023-05-10T09:37:42;4.65;;;4.00;;
54125;SDS011;40360;52.992;6.796;2023-05-10T09:40:13;4.80;;;3.97;;
54125;SDS011;40360;52.992;6.796;2023-05-10T09:45:23;4.90;;;4.40;;
54125;SDS011;40360;52.992;6.796;2023-05-10T09:47:50;6.93;;;4.63;;
54125;SDS011;40360;52.992;6.796;2023-05-10T09:50:16;4.82;;;4.43;;
54125;SDS011;40360;52.992;6.796;2023-05-10T09:52:46;4.30;;;3.78;;
54125;SDS011;40360;52.992;6.796;2023-05-10T09:55:19;4.97;;;3.58;;
54125;SDS011;40360;52.992;6.796;2023-05-10T09:57:50;5.43;;;3.40;;
54125;SDS011;40360;52.992;6.796;2023-05-10T10:00:24;5.13;;;3.30;;
54125;SDS011;40360;52.992;6.796;2023-05-10T10:02:54;3.55;;;3.25;;
54125;SDS011;40360;52.992;6.796;2023-05-10T10:05:27;4.18;;;3.65;;
54125;SDS011;40360;52.992;6.796;2023-05-10T10:07:53;3.80;;;2.60;;
54125;SDS011;40360;52.992;6.796;2023-05-10T10:10:20;3.85;;;2.70;;
54125;SDS011;40360;52.992;6.796;2023-05-10T10:12:46;3.10;;;2.60;;
54125;SDS011;40360;52.992;6.796;2023-05-10T10:15:12;3.78;;;2.95;;
54125;SDS011;40360;52.992;6.796;2023-05-10T10:17:38;3.50;;;3.03;;
54125;SDS011;40360;52.992;6.796;2023-05-10T10:20:04;3.95;;;3.53;;
54125;SDS011;40360;52.992;6.796;2023-05-10T10:22:31;4.80;;;3.95;;
54125;SDS011;40360;52.992;6.796;2023-05-10T10:24:57;5.10;;;4.43;;
54125;SDS011;40360;52.992;6.796;2023-05-10T10:30:29;6.00;;;4.35;;
54125;SDS011;40360;52.992;6.796;2023-05-10T10:33:24;7.22;;;4.78;;
54125;SDS011;40360;52.992;6.796;2023-05-10T10:36:15;5.57;;;4.30;;
54125;SDS011;40360;52.992;6.796;2023-05-10T10:54:52;7.30;;;5.80;;
54125;SDS011;40360;52.992;6.796;2023-05-10T10:57:22;7.90;;;6.68;;
54125;SDS011;40360;52.992;6.796;2023-05-10T10:59:48;7.70;;;6.68;;
54125;SDS011;40360;52.992;6.796;2023-05-10T11:02:33;9.10;;;6.10;;
54125;SDS011;40360;52.992;6.796;2023-05-10T11:08:01;7.75;;;5.55;;
54125;SDS011;40360;52.992;6.796;2023-05-10T11:10:33;7.20;;;6.43;;
54125;SDS011;40360;52.992;6.796;2023-05-10T11:13:02;7.68;;;6.38;;
54125;SDS011;40360;52.992;6.796;2023-05-10T11:15:33;9.18;;;6.50;;
54125;SDS011;40360;52.992;6.796;2023-05-10T11:18:17;7.85;;;6.43;;
54125;SDS011;40360;52.992;6.796;2023-05-10T11:20:56;7.97;;;6.13;;
54125;SDS011;40360;52.992;6.796;2023-05-10T11:26:24;8.02;;;6.28;;
54125;SDS011;40360;52.992;6.796;2023-05-10T11:28:52;9.35;;;7.50;;
54125;SDS011;40360;52.992;6.796;2023-05-10T11:31:20;7.97;;;5.88;;
54125;SDS011;40360;52.992;6.796;2023-05-10T11:33:50;8.13;;;5.93;;
54125;SDS011;40360;52.992;6.796;2023-05-10T11:36:18;8.48;;;5.82;;
54125;SDS011;40360;52.992;6.796;2023-05-10T11:38:48;8.77;;;5.75;;
54125;SDS011;40360;52.992;6.796;2023-05-10T11:41:15;8.95;;;5.93;;
54125;SDS011;40360;52.992;6.796;2023-05-10T11:43:42;6.70;;;5.72;;
54125;SDS011;40360;52.992;6.796;2023-05-10T11:46:11;7.15;;;6.20;;
54125;SDS011;40360;52.992;6.796;2023-05-10T11:48:38;8.30;;;6.38;;
54125;SDS011;40360;52.992;6.796;2023-05-10T11:51:04;7.82;;;6.53;;
54125;SDS011;40360;52.992;6.796;2023-05-10T11:53:31;9.88;;;6.18;;
54125;SDS011;40360;52.992;6.796;2023-05-10T11:56:10;6.72;;;5.63;;
54125;SDS011;40360;52.992;6.796;2023-05-10T11:58:37;7.28;;;6.00;;
54125;SDS011;40360;52.992;6.796;2023-05-10T12:01:04;7.97;;;5.57;;
54125;SDS011;40360;52.992;6.796;2023-05-10T12:03:32;6.82;;;5.75;;
54125;SDS011;40360;52.992;6.796;2023-05-10T12:05:58;6.32;;;5.57;;
54125;SDS011;40360;52.992;6.796;2023-05-10T12:08:26;7.60;;;5.47;;
54125;SDS011;40360;52.992;6.796;2023-05-10T12:10:53;7.90;;;6.00;;
54125;SDS011;40360;52.992;6.796;2023-05-10T12:13:28;8.27;;;5.57;;
54125;SDS011;40360;52.992;6.796;2023-05-10T12:15:54;9.07;;;5.78;;
54125;SDS011;40360;52.992;6.796;2023-05-10T12:18:23;9.30;;;6.90;;
54125;SDS011;40360;52.992;6.796;2023-05-10T12:20:51;9.07;;;6.68;;
54125;SDS011;40360;52.992;6.796;2023-05-10T12:23:18;7.63;;;6.22;;
54125;SDS011;40360;52.992;6.796;2023-05-10T12:25:45;8.18;;;7.20;;
54125;SDS011;40360;52.992;6.796;2023-05-10T12:28:11;7.65;;;6.38;;
54125;SDS011;40360;52.992;6.796;2023-05-10T12:30:38;11.15;;;6.80;;
54125;SDS011;40360;52.992;6.796;2023-05-10T12:35:52;10.05;;;5.88;;
54125;SDS011;40360;52.992;6.796;2023-05-10T12:38:26;7.65;;;6.70;;
54125;SDS011;40360;52.992;6.796;2023-05-10T12:40:56;10.88;;;6.45;;
54125;SDS011;40360;52.992;6.796;2023-05-10T12:43:23;10.13;;;7.72;;
54125;SDS011;40360;52.992;6.796;2023-05-10T12:45:48;7.78;;;6.10;;
54125;SDS011;40360;52.992;6.796;2023-05-10T12:48:14;7.30;;;5.70;;
54125;SDS011;40360;52.992;6.796;2023-05-10T12:50:40;8.85;;;6.30;;
54125;SDS011;40360;52.992;6.796;2023-05-10T12:53:06;7.40;;;6.50;;
54125;SDS011;40360;52.992;6.796;2023-05-10T12:55:32;7.05;;;5.97;;
54125;SDS011;40360;52.992;6.796;2023-05-10T12:57:57;8.43;;;6.35;;
54125;SDS011;40360;52.992;6.796;2023-05-10T13:00:23;12.20;;;7.55;;
54125;SDS011;40360;52.992;6.796;2023-05-10T13:02:48;9.73;;;5.95;;
54125;SDS011;40360;52.992;6.796;2023-05-10T13:05:14;8.40;;;6.88;;
54125;SDS011;40360;52.992;6.796;2023-05-10T13:07:40;7.28;;;5.68;;
54125;SDS011;40360;52.992;6.796;2023-05-10T13:10:07;9.05;;;5.30;;
54125;SDS011;40360;52.992;6.796;2023-05-10T13:12:32;6.47;;;4.70;;
54125;SDS011;40360;52.992;6.796;2023-05-10T13:14:58;8.70;;;5.32;;
54125;SDS011;40360;52.992;6.796;2023-05-10T13:17:25;10.52;;;5.50;;
54125;SDS011;40360;52.992;6.796;2023-05-10T13:19:50;6.35;;;4.88;;
54125;SDS011;40360;52.992;6.796;2023-05-10T13:22:16;8.07;;;5.50;;
54125;SDS011;40360;52.992;6.796;2023-05-10T13:24:42;8.13;;;6.20;;
54125;SDS011;40360;52.992;6.796;2023-05-10T13:27:08;18.85;;;6.82;;
54125;SDS011;40360;52.992;6.796;2023-05-10T13:29:34;8.90;;;5.78;;
54125;SDS011;40360;52.992;6.796;2023-05-10T13:31:59;9.25;;;6.22;;
54125;SDS011;40360;52.992;6.796;2023-05-10T13:34:25;7.82;;;5.53;;
54125;SDS011;40360;52.992;6.796;2023-05-10T13:36:51;11.43;;;7.00;;
54125;SDS011;40360;52.992;6.796;2023-05-10T13:39:17;10.07;;;6.60;;
54125;SDS011;40360;52.992;6.796;2023-05-10T13:41:43;6.68;;;5.78;;
54125;SDS011;40360;52.992;6.796;2023-05-10T13:44:09;7.10;;;6.05;;
54125;SDS011;40360;52.992;6.796;2023-05-10T13:46:37;11.05;;;7.18;;
54125;SDS011;40360;52.992;6.796;2023-05-10T13:49:03;8.98;;;6.50;;
54125;SDS011;40360;52.992;6.796;2023-05-10T13:51:29;6.60;;;5.88;;
54125;SDS011;40360;52.992;6.796;2023-05-10T13:53:56;10.20;;;6.45;;
54125;SDS011;40360;52.992;6.796;2023-05-10T13:56:25;6.95;;;5.53;;
54125;SDS011;40360;52.992;6.796;2023-05-10T13:58:51;6.40;;;5.50;;
54125;SDS011;40360;52.992;6.796;2023-05-10T14:01:17;9.10;;;6.18;;
54125;SDS011;40360;52.992;6.796;2023-05-10T14:03:42;8.00;;;5.80;;
54125;SDS011;40360;52.992;6.796;2023-05-10T14:06:08;9.48;;;6.47;;
54125;SDS011;40360;52.992;6.796;2023-05-10T14:08:34;8.43;;;6.25;;
54125;SDS011;40360;52.992;6.796;2023-05-10T14:11:00;10.57;;;7.03;;
54125;SDS011;40360;52.992;6.796;2023-05-10T14:13:26;7.80;;;6.85;;
54125;SDS011;40360;52.992;6.796;2023-05-10T14:15:53;8.48;;;5.95;;
54125;SDS011;40360;52.992;6.796;2023-05-10T14:18:19;7.07;;;5.97;;
54125;SDS011;40360;52.992;6.796;2023-05-10T14:20:45;7.80;;;5.95;;
54125;SDS011;40360;52.992;6.796;2023-05-10T14:23:10;8.88;;;6.10;;
54125;SDS011;40360;52.992;6.796;2023-05-10T14:25:37;9.60;;;6.55;;
54125;SDS011;40360;52.992;6.796;2023-05-10T14:28:06;8.57;;;6.38;;
54125;SDS011;40360;52.992;6.796;2023-05-10T14:30:31;8.85;;;6.88;;
54125;SDS011;40360;52.992;6.796;2023-05-10T14:33:01;8.90;;;5.95;;
54125;SDS011;40360;52.992;6.796;2023-05-10T14:35:27;9.98;;;6.30;;
54125;SDS011;40360;52.992;6.796;2023-05-10T14:37:53;7.95;;;6.10;;
54125;SDS011;40360;52.992;6.796;2023-05-10T14:40:19;7.88;;;5.10;;
54125;SDS011;40360;52.992;6.796;2023-05-10T14:42:45;9.93;;;6.70;;
54125;SDS011;40360;52.992;6.796;2023-05-10T14:45:11;9.48;;;6.47;;
54125;SDS011;40360;52.992;6.796;2023-05-10T14:47:37;9.02;;;6.43;;
54125;SDS011;40360;52.992;6.796;2023-05-10T14:50:03;8.98;;;7.47;;
54125;SDS011;40360;52.992;6.796;2023-05-10T14:52:29;11.43;;;7.72;;
54125;SDS011;40360;52.992;6.796;2023-05-10T14:54:54;9.68;;;7.93;;
54125;SDS011;40360;52.992;6.796;2023-05-10T14:57:20;9.13;;;7.60;;
54125;SDS011;40360;52.992;6.796;2023-05-10T14:59:45;8.07;;;6.78;;
54125;SDS011;40360;52.992;6.796;2023-05-10T15:02:11;10.32;;;7.25;;
54125;SDS011;40360;52.992;6.796;2023-05-10T15:04:37;10.35;;;6.70;;
54125;SDS011;40360;52.992;6.796;2023-05-10T15:07:03;9.15;;;6.80;;
54125;SDS011;40360;52.992;6.796;2023-05-10T15:09:29;9.45;;;6.18;;
54125;SDS011;40360;52.992;6.796;2023-05-10T15:11:54;8.25;;;5.90;;
54125;SDS011;40360;52.992;6.796;2023-05-10T15:14:20;5.95;;;5.18;;
54125;SDS011;40360;52.992;6.796;2023-05-10T15:16:46;5.97;;;4.97;;
54125;SDS011;40360;52.992;6.796;2023-05-10T15:19:12;7.78;;;4.60;;
54125;SDS011;40360;52.992;6.796;2023-05-10T15:21:38;7.22;;;4.85;;
54125;SDS011;40360;52.992;6.796;2023-05-10T15:24:06;5.78;;;4.82;;
54125;SDS011;40360;52.992;6.796;2023-05-10T15:26:32;5.65;;;4.50;;
54125;SDS011;40360;52.992;6.796;2023-05-10T15:28:58;7.25;;;4.65;;
54125;SDS011;40360;52.992;6.796;2023-05-10T15:31:24;7.80;;;5.13;;
54125;SDS011;40360;52.992;6.796;2023-05-10T15:33:49;7.80;;;5.07;;
54125;SDS011;40360;52.992;6.796;2023-05-10T15:36:15;5.75;;;4.65;;
54125;SDS011;40360;52.992;6.796;2023-05-10T15:38:42;8.23;;;5.47;;
54125;SDS011;40360;52.992;6.796;2023-05-10T15:41:08;9.57;;;5.70;;